Tobago Crown Point, Trinidad And Tobago

9:40 PM AST on October 20, 2014 (GMT -0400)
Crown Point | Change Station
CLOSE
Current Station
Airport
Location: Scarborough,
Elevation: 26 ft
Nearby Weather Stations

Elev 26 ft 11.15 °N, 60.84 °W | Updated 40 minutes ago

Partly Cloudy
Partly Cloudy
81 °F
Feels Like 85 °F
N
0
Wind Variable Wind from North

Today
High -- | Low -- °F
--% Chance of Precip.
Yesterday
High -- | Low -- °F
Precip. -- in
5:52 AM 5:43 PM
Waning Crescent, 8% visible
Pressure 29.92 in
Visibility 6.2 miles
Clouds Few 1800 ft
Heat Index 85 °F
Dew Point 73 °F
Humidity 79%
Rainfall 0.00 in
Snow Depth Not available.
UV 0 out of 12
Pollen Not available.
Air Quality Not available.
Flu Activity Not available.
METAR TTCP 210100Z 00000KT 9999 FEW018 27/23 Q1013 NOSIG

More Conditions Fewer Conditions

Pressure 29.92 in
Visibility 6.2 miles
Clouds Few 1800 ft
Heat Index 85 °F
Dew Point 73 °F
Humidity 79%
Rainfall 0.00 in
Snow Depth Not available.
UV 0 out of 12
Pollen Not available.
Air Quality Not available.
Flu Activity Not available.
METAR TTCP 210100Z 00000KT 9999 FEW018 27/23 Q1013 NOSIG

More Conditions Fewer Conditions

10-Day Weather Forecast

Almanac

Astronomy

Oct. 20, 2014 Rise Set
Actual Time 5:52 AM AST 5:43 PM AST
Civil Twilight 5:31 AM AST 6:04 PM AST
Nautical Twilight 5:06 AM AST 6:29 PM AST
Astronomical Twilight 4:42 AM AST 6:53 PM AST
Moon 3:10 AM AST (10/20) 3:34 PM AST (10/20)
Length of Visible Light 12h 32m
Length of Day
11h 50m
Tomorrow will be 0m 34s shorter.
Waning Crescent, 8% of the Moon is Illuminated
Today
Waning Crescent
Oct 23
New
Oct 30
First Quarter
Nov 6
Full
Nov 14
Last Quarter

Today's Extremes

Country Highs Country Lows

Community

WunderPhotos

Upload Photos

1,763,563 photos uploaded!

Nearby

Snow Depth

Not available.

Earthquake Activity

City Distance Mag. Time & Date
No recent earthquake activity has been reported nearby.
Minimum magnitude displayed is 2.5.

Coastal Water Temperatures

Place Temperature
No Stations Reporting

Nearby Weather Stations